sensor_id;sensor_type;location;lat;lon;timestamp;P1;durP1;ratioP1;P2;durP2;ratioP2
43690;SDS011;29293;52.190;21.226;2022-11-15T00:11:54;42.50;;;26.10;;
43690;SDS011;29293;52.190;21.226;2022-11-15T00:27:02;39.80;;;25.50;;
43690;SDS011;29293;52.190;21.226;2022-11-15T00:42:10;43.30;;;26.20;;
43690;SDS011;29293;52.190;21.226;2022-11-15T00:57:17;47.00;;;28.40;;
43690;SDS011;29293;52.190;21.226;2022-11-15T01:12:24;50.60;;;30.00;;
43690;SDS011;29293;52.190;21.226;2022-11-15T01:27:31;52.60;;;28.50;;
43690;SDS011;29293;52.190;21.226;2022-11-15T01:42:39;49.50;;;29.90;;
43690;SDS011;29293;52.190;21.226;2022-11-15T01:57:46;67.90;;;35.70;;
43690;SDS011;29293;52.190;21.226;2022-11-15T02:12:56;59.40;;;33.40;;
43690;SDS011;29293;52.190;21.226;2022-11-15T02:28:13;59.40;;;33.60;;
43690;SDS011;29293;52.190;21.226;2022-11-15T02:43:33;65.10;;;34.70;;
43690;SDS011;29293;52.190;21.226;2022-11-15T02:59:10;58.40;;;32.50;;
43690;SDS011;29293;52.190;21.226;2022-11-15T03:14:28;58.50;;;31.30;;
43690;SDS011;29293;52.190;21.226;2022-11-15T03:29:39;62.90;;;32.10;;
43690;SDS011;29293;52.190;21.226;2022-11-15T03:44:53;51.90;;;25.60;;
43690;SDS011;29293;52.190;21.226;2022-11-15T04:00:06;63.00;;;31.50;;
43690;SDS011;29293;52.190;21.226;2022-11-15T04:15:17;60.40;;;30.50;;
43690;SDS011;29293;52.190;21.226;2022-11-15T04:30:26;61.10;;;30.50;;
43690;SDS011;29293;52.190;21.226;2022-11-15T04:45:34;44.10;;;22.00;;
43690;SDS011;29293;52.190;21.226;2022-11-15T05:00:42;64.60;;;29.50;;
43690;SDS011;29293;52.190;21.226;2022-11-15T05:15:49;64.50;;;32.20;;
43690;SDS011;29293;52.190;21.226;2022-11-15T05:46:07;67.40;;;32.40;;
43690;SDS011;29293;52.190;21.226;2022-11-15T06:01:15;51.70;;;24.10;;
43690;SDS011;29293;52.190;21.226;2022-11-15T06:16:22;74.20;;;31.60;;
43690;SDS011;29293;52.190;21.226;2022-11-15T06:31:30;72.20;;;30.60;;
43690;SDS011;29293;52.190;21.226;2022-11-15T06:46:39;69.00;;;30.70;;
43690;SDS011;29293;52.190;21.226;2022-11-15T07:01:47;71.20;;;28.50;;
43690;SDS011;29293;52.190;21.226;2022-11-15T07:16:55;66.00;;;27.60;;
43690;SDS011;29293;52.190;21.226;2022-11-15T07:32:05;78.70;;;31.70;;
43690;SDS011;29293;52.190;21.226;2022-11-15T07:47:13;62.90;;;26.10;;
43690;SDS011;29293;52.190;21.226;2022-11-15T08:02:20;66.90;;;27.70;;
43690;SDS011;29293;52.190;21.226;2022-11-15T08:17:28;65.80;;;27.60;;
43690;SDS011;29293;52.190;21.226;2022-11-15T08:32:36;66.70;;;27.00;;
43690;SDS011;29293;52.190;21.226;2022-11-15T08:47:44;55.90;;;27.70;;
43690;SDS011;29293;52.190;21.226;2022-11-15T09:02:52;62.60;;;28.80;;
43690;SDS011;29293;52.190;21.226;2022-11-15T09:17:59;51.90;;;24.00;;
43690;SDS011;29293;52.190;21.226;2022-11-15T09:33:10;50.90;;;25.20;;
43690;SDS011;29293;52.190;21.226;2022-11-15T09:48:22;56.00;;;27.60;;
43690;SDS011;29293;52.190;21.226;2022-11-15T10:03:40;38.30;;;18.50;;
43690;SDS011;29293;52.190;21.226;2022-11-15T10:18:51;46.30;;;24.60;;
43690;SDS011;29293;52.190;21.226;2022-11-15T10:34:09;48.80;;;25.30;;
43690;SDS011;29293;52.190;21.226;2022-11-15T10:49:20;45.00;;;24.30;;
43690;SDS011;29293;52.190;21.226;2022-11-15T11:04:29;46.10;;;25.10;;
43690;SDS011;29293;52.190;21.226;2022-11-15T11:19:58;46.60;;;25.30;;
43690;SDS011;29293;52.190;21.226;2022-11-15T11:35:13;50.90;;;27.90;;
43690;SDS011;29293;52.190;21.226;2022-11-15T11:50:26;51.00;;;28.70;;
43690;SDS011;29293;52.190;21.226;2022-11-15T12:05:36;50.00;;;26.40;;
43690;SDS011;29293;52.190;21.226;2022-11-15T12:20:50;49.20;;;28.90;;
43690;SDS011;29293;52.190;21.226;2022-11-15T12:36:03;51.80;;;25.40;;
43690;SDS011;29293;52.190;21.226;2022-11-15T12:51:14;50.20;;;26.70;;
43690;SDS011;29293;52.190;21.226;2022-11-15T13:06:36;57.50;;;30.60;;
43690;SDS011;29293;52.190;21.226;2022-11-15T13:21:49;53.60;;;28.70;;
43690;SDS011;29293;52.190;21.226;2022-11-15T13:37:15;52.90;;;26.50;;
43690;SDS011;29293;52.190;21.226;2022-11-15T13:52:36;69.10;;;34.70;;
43690;SDS011;29293;52.190;21.226;2022-11-15T14:07:53;65.00;;;33.20;;
43690;SDS011;29293;52.190;21.226;2022-11-15T14:23:02;58.50;;;30.30;;
43690;SDS011;29293;52.190;21.226;2022-11-15T14:38:11;66.00;;;33.80;;
43690;SDS011;29293;52.190;21.226;2022-11-15T14:53:19;69.70;;;35.50;;
43690;SDS011;29293;52.190;21.226;2022-11-15T15:08:27;71.50;;;36.20;;
43690;SDS011;29293;52.190;21.226;2022-11-15T15:23:34;69.60;;;35.10;;
43690;SDS011;29293;52.190;21.226;2022-11-15T15:38:42;76.60;;;35.50;;
43690;SDS011;29293;52.190;21.226;2022-11-15T15:53:50;87.90;;;44.50;;
43690;SDS011;29293;52.190;21.226;2022-11-15T16:09:01;87.10;;;42.80;;
43690;SDS011;29293;52.190;21.226;2022-11-15T16:24:18;80.50;;;33.90;;
43690;SDS011;29293;52.190;21.226;2022-11-15T16:39:35;72.20;;;33.50;;
43690;SDS011;29293;52.190;21.226;2022-11-15T16:54:42;78.20;;;36.40;;
43690;SDS011;29293;52.190;21.226;2022-11-15T17:09:50;66.20;;;30.50;;
43690;SDS011;29293;52.190;21.226;2022-11-15T17:40:44;95.90;;;45.00;;
43690;SDS011;29293;52.190;21.226;2022-11-15T17:55:52;77.90;;;37.80;;
43690;SDS011;29293;52.190;21.226;2022-11-15T18:11:07;71.90;;;31.20;;
43690;SDS011;29293;52.190;21.226;2022-11-15T18:26:17;61.80;;;27.20;;
43690;SDS011;29293;52.190;21.226;2022-11-15T18:41:43;69.30;;;28.30;;
43690;SDS011;29293;52.190;21.226;2022-11-15T18:56:52;47.00;;;21.60;;
43690;SDS011;29293;52.190;21.226;2022-11-15T19:12:00;60.50;;;26.20;;
43690;SDS011;29293;52.190;21.226;2022-11-15T19:27:10;46.80;;;21.00;;
43690;SDS011;29293;52.190;21.226;2022-11-15T19:42:18;39.60;;;19.10;;
43690;SDS011;29293;52.190;21.226;2022-11-15T19:57:25;40.50;;;20.30;;
43690;SDS011;29293;52.190;21.226;2022-11-15T20:12:35;42.20;;;22.40;;
43690;SDS011;29293;52.190;21.226;2022-11-15T20:27:44;37.90;;;19.00;;
43690;SDS011;29293;52.190;21.226;2022-11-15T20:43:03;45.30;;;19.90;;
43690;SDS011;29293;52.190;21.226;2022-11-15T20:58:11;32.80;;;16.60;;
43690;SDS011;29293;52.190;21.226;2022-11-15T21:13:19;35.40;;;17.10;;
43690;SDS011;29293;52.190;21.226;2022-11-15T21:28:27;30.30;;;16.20;;
43690;SDS011;29293;52.190;21.226;2022-11-15T21:43:34;35.50;;;17.70;;
43690;SDS011;29293;52.190;21.226;2022-11-15T21:58:42;35.50;;;17.40;;
43690;SDS011;29293;52.190;21.226;2022-11-15T22:28:58;37.40;;;17.50;;
43690;SDS011;29293;52.190;21.226;2022-11-15T22:44:05;40.20;;;17.00;;
43690;SDS011;29293;52.190;21.226;2022-11-15T22:59:12;37.30;;;15.80;;
43690;SDS011;29293;52.190;21.226;2022-11-15T23:14:20;41.00;;;18.90;;
43690;SDS011;29293;52.190;21.226;2022-11-15T23:29:28;53.70;;;19.90;;
43690;SDS011;29293;52.190;21.226;2022-11-15T23:44:57;51.10;;;20.40;;
